Time;durP1;ratioP1;P1;durP2;ratioP2;P2;SDS_P1;SDS_P2;PMS_P1;PMS_P2;Temp;Humidity;BMP_temperature;BMP_pressure;BME280_temperature;BME280_humidity;BME280_pressure;Samples;Min_cycle;Max_cycle;Signal;HPM_P1;HPM_P2
2022/09/12 00:01:56;;;;;;;20.90;18.80;;;16.20;99.90;;;;;;5012181;28;20049;-59
2022/09/12 00:04:22;;;;;;;20.08;17.98;;;16.20;99.90;;;;;;5014108;28;20339;-60
2022/09/12 00:06:47;;;;;;;20.10;18.10;;;16.20;99.90;;;;;;5012976;28;20451;-60
2022/09/12 00:09:13;;;;;;;21.52;18.42;;;16.20;99.90;;;;;;5014226;28;20077;-59
2022/09/12 00:11:42;;;;;;;22.45;20.05;;;16.10;99.90;;;;;;5014825;28;20217;-59
2022/09/12 00:14:10;;;;;;;21.23;18.98;;;16.10;99.90;;;;;;5009963;28;20046;-59
2022/09/12 00:16:37;;;;;;;20.45;18.45;;;16.10;99.90;;;;;;4989515;28;20121;-59
2022/09/12 00:19:04;;;;;;;21.02;18.92;;;16.10;99.90;;;;;;4983195;28;20359;-59
2022/09/12 00:21:33;;;;;;;20.67;18.58;;;16.00;99.90;;;;;;5014779;28;20064;-59
2022/09/12 00:23:58;;;;;;;22.70;20.38;;;16.00;99.90;;;;;;4997513;28;20038;-59
2022/09/12 00:26:24;;;;;;;23.13;20.00;;;16.00;99.90;;;;;;5007661;28;20037;-60
2022/09/12 00:28:50;;;;;;;23.17;20.77;;;16.00;99.90;;;;;;5018977;28;20054;-60
2022/09/12 00:31:19;;;;;;;23.10;20.83;;;16.00;99.90;;;;;;5014070;28;20087;-59
2022/09/12 00:33:45;;;;;;;23.42;21.02;;;16.00;99.90;;;;;;5014488;28;20398;-58
2022/09/12 00:36:14;;;;;;;22.23;20.02;;;16.00;99.90;;;;;;5012507;28;20509;-59
2022/09/12 00:38:41;;;;;;;23.17;20.77;;;16.00;99.90;;;;;;5002364;28;20034;-60
2022/09/12 00:41:13;;;;;;;21.52;19.35;;;15.90;99.90;;;;;;5000539;28;20042;-58
2022/09/12 00:43:42;;;;;;;22.40;19.85;;;15.90;99.90;;;;;;5019813;28;20109;-59
2022/09/12 00:46:40;;;;;;;21.02;18.88;;;15.90;99.90;;;;;;5004617;28;20430;-59
2022/09/12 00:49:18;;;;;;;24.05;21.02;;;15.80;99.90;;;;;;4993950;28;20061;-60
2022/09/12 00:51:55;;;;;;;26.80;21.65;;;15.80;99.90;;;;;;5008080;28;20049;-59
2022/09/12 00:54:26;;;;;;;24.02;21.55;;;15.80;99.90;;;;;;4994177;28;20042;-60
2022/09/12 00:56:56;;;;;;;22.77;20.52;;;15.70;99.90;;;;;;4997312;28;20045;-60
2022/09/12 00:59:28;;;;;;;23.63;21.27;;;15.70;99.90;;;;;;5003362;28;20046;-60
2022/09/12 01:01:54;;;;;;;24.92;22.23;;;15.60;99.90;;;;;;4993608;28;20108;-59
2022/09/12 01:04:22;;;;;;;23.60;21.13;;;15.60;99.90;;;;;;4996520;28;20489;-59
2022/09/12 01:06:49;;;;;;;23.55;21.05;;;15.60;99.90;;;;;;4994986;28;20045;-59
2022/09/12 01:09:19;;;;;;;24.70;22.05;;;15.50;99.90;;;;;;5005498;28;20073;-59
2022/09/12 01:11:47;;;;;;;22.35;20.15;;;15.50;99.90;;;;;;5007469;28;20029;-59
2022/09/12 01:14:15;;;;;;;22.92;20.52;;;15.50;99.90;;;;;;4995302;28;20105;-60
2022/09/12 01:16:41;;;;;;;22.50;20.13;;;15.40;99.90;;;;;;4993269;28;20410;-61
2022/09/12 01:19:39;;;;;;;23.05;20.65;;;15.40;99.90;;;;;;5012699;28;20029;-59
2022/09/12 01:22:20;;;;;;;22.50;20.30;;;15.40;99.90;;;;;;4999322;28;20042;-60
2022/09/12 01:25:04;;;;;;;21.98;19.67;;;15.40;99.90;;;;;;5003944;28;20057;-59
2022/09/12 01:27:39;;;;;;;;;;;15.30;99.90;;;;;;5007206;28;20041;-60
2022/09/12 01:30:20;;;;;;;22.10;19.85;;;15.30;99.90;;;;;;5011403;28;19976;-59
2022/09/12 01:33:15;;;;;;;22.55;20.25;;;15.20;99.90;;;;;;5012902;28;20198;-59
2022/09/12 01:35:59;;;;;;;23.48;21.13;;;15.20;99.90;;;;;;5008022;28;20061;-59
2022/09/12 01:38:28;;;;;;;22.27;19.97;;;15.20;99.90;;;;;;4999057;28;20042;-60
2022/09/12 01:41:20;;;;;;;23.42;21.02;;;15.20;99.90;;;;;;5009529;28;20403;-59
2022/09/12 01:44:01;;;;;;;22.23;19.95;;;15.20;99.90;;;;;;5000378;28;20057;-59
2022/09/12 01:46:53;;;;;;;22.75;20.40;;;15.20;99.90;;;;;;5007180;28;20120;-59
2022/09/12 01:49:26;;;;;;;22.00;19.80;;;15.20;99.90;;;;;;4993591;28;20038;-59
2022/09/12 01:51:56;;;;;;;22.60;20.25;;;15.20;99.90;;;;;;5007203;28;20030;-60
2022/09/12 01:54:45;;;;;;;25.50;20.70;;;15.20;99.90;;;;;;4999777;28;20046;-60
2022/09/12 01:57:24;;;;;;;24.70;21.48;;;15.10;99.90;;;;;;4998623;28;20092;-60
2022/09/12 01:59:56;;;;;;;23.63;21.20;;;15.20;99.90;;;;;;5012523;28;20100;-61
2022/09/12 02:02:31;;;;;;;22.13;19.92;;;15.20;99.90;;;;;;5005501;28;20168;-60
2022/09/12 02:05:03;;;;;;;23.33;20.50;;;15.10;99.90;;;;;;5007978;28;20068;-59
2022/09/12 02:07:36;;;;;;;23.05;20.60;;;15.10;99.90;;;;;;5005184;28;20034;-60
2022/09/12 02:10:21;;;;;;;23.30;20.85;;;15.10;99.90;;;;;;4993116;28;20046;-61
2022/09/12 02:12:49;;;;;;;23.77;21.27;;;15.10;99.90;;;;;;5001775;28;20045;-61
2022/09/12 02:15:18;;;;;;;22.98;20.58;;;15.10;99.90;;;;;;4998313;28;20229;-60
2022/09/12 02:17:48;;;;;;;22.98;20.58;;;15.10;99.90;;;;;;5011587;28;20046;-60
2022/09/12 02:20:19;;;;;;;22.83;20.35;;;15.10;99.90;;;;;;5011820;28;20077;-60
2022/09/12 02:22:46;;;;;;;23.33;20.92;;;15.10;99.90;;;;;;5012104;28;20037;-60
2022/09/12 02:25:16;;;;;;;26.00;21.90;;;15.10;99.90;;;;;;5010176;28;20046;-60
2022/09/12 02:27:48;;;;;;;24.17;21.58;;;15.00;99.90;;;;;;4998094;28;20120;-60
2022/09/12 02:30:15;;;;;;;26.73;23.73;;;15.00;99.90;;;;;;5019016;28;20390;-60
2022/09/12 02:33:01;;;;;;;25.48;22.83;;;15.00;99.90;;;;;;5020114;28;20462;-61
2022/09/12 02:35:33;;;;;;;25.85;23.08;;;15.10;99.90;;;;;;5006555;28;20050;-60
2022/09/12 02:38:19;;;;;;;24.98;22.38;;;15.00;99.90;;;;;;5008296;28;20053;-59
2022/09/12 02:40:45;;;;;;;26.13;23.33;;;15.00;99.90;;;;;;4998693;28;20056;-60
2022/09/12 02:43:11;;;;;;;26.85;23.52;;;15.00;99.90;;;;;;5015521;28;20061;-60
2022/09/12 02:45:37;;;;;;;28.13;24.38;;;15.00;99.90;;;;;;5012231;28;20042;-59
2022/09/12 02:48:17;;;;;;;29.42;26.23;;;15.00;99.90;;;;;;5014550;28;20041;-60
2022/09/12 02:50:43;;;;;;;28.33;24.40;;;15.00;99.90;;;;;;5011324;28;20045;-60
2022/09/12 02:53:10;;;;;;;31.38;26.45;;;14.90;99.90;;;;;;5001252;28;20042;-60
2022/09/12 02:55:37;;;;;;;27.92;24.92;;;14.90;99.90;;;;;;4996120;28;20039;-60
2022/09/12 02:58:07;;;;;;;28.05;25.05;;;14.80;99.90;;;;;;4978277;28;20184;-61
2022/09/12 03:00:46;;;;;;;28.10;25.10;;;14.80;99.90;;;;;;5002353;28;20045;-60
2022/09/12 03:03:37;;;;;;;27.98;24.98;;;14.90;99.90;;;;;;5002099;28;20046;-61
2022/09/12 03:06:13;;;;;;;29.25;24.95;;;14.80;99.90;;;;;;5004501;28;20038;-60
2022/09/12 03:09:14;;;;;;;28.15;25.13;;;14.80;99.90;;;;;;5011884;28;20368;-59
2022/09/12 03:12:09;;;;;;;29.63;26.00;;;14.80;99.90;;;;;;5001281;28;20134;-59
2022/09/12 03:14:53;;;;;;;;;;;14.70;99.90;;;;;;4962970;28;20057;-60
2022/09/12 03:17:45;;;;;;;27.40;24.47;;;14.60;99.90;;;;;;5009108;28;20405;-59
2022/09/12 03:20:17;;;;;;;30.88;25.58;;;14.60;99.90;;;;;;4995717;28;20058;-59
2022/09/12 03:23:03;;;;;;;27.13;24.23;;;14.60;99.90;;;;;;4995549;28;20054;-60
2022/09/12 03:25:51;;;;;;;28.35;25.20;;;14.60;99.90;;;;;;5006846;28;20407;-59
2022/09/12 03:28:21;;;;;;;29.65;26.45;;;14.60;99.90;;;;;;5006349;28;20379;-61
2022/09/12 03:30:50;;;;;;;29.38;26.27;;;14.60;99.90;;;;;;5002472;28;20042;-60
2022/09/12 03:33:23;;;;;;;28.00;24.98;;;14.50;99.90;;;;;;5014444;28;20044;-60
2022/09/12 03:35:50;;;;;;;27.85;25.02;;;14.60;99.90;;;;;;4996891;28;20183;-60
2022/09/12 03:38:17;;;;;;;30.67;25.60;;;14.60;99.90;;;;;;4995018;28;20093;-60
2022/09/12 03:40:43;;;;;;;29.38;26.17;;;14.60;99.90;;;;;;4977697;28;20430;-60
2022/09/12 03:43:09;;;;;;;30.05;26.85;;;14.50;99.90;;;;;;5009524;28;20046;-60
2022/09/12 03:45:36;;;;;;;30.20;26.90;;;14.50;99.90;;;;;;5004286;28;20104;-60
2022/09/12 03:48:02;;;;;;;30.23;26.80;;;14.50;99.90;;;;;;5009421;28;20394;-61
2022/09/12 03:50:28;;;;;;;31.02;27.65;;;14.50;99.90;;;;;;5012890;28;20534;-60
2022/09/12 03:52:54;;;;;;;32.50;27.90;;;14.50;99.90;;;;;;5015150;28;20208;-60
2022/09/12 03:55:19;;;;;;;29.05;25.65;;;14.40;99.90;;;;;;5008664;28;20779;-60
2022/09/12 03:57:45;;;;;;;30.00;26.88;;;14.40;99.90;;;;;;4998681;28;20056;-60
2022/09/12 04:00:11;;;;;;;32.40;28.30;;;14.40;99.90;;;;;;5022155;28;20035;-61
2022/09/12 04:02:37;;;;;;;28.80;25.75;;;14.30;99.90;;;;;;5000149;28;20050;-60
2022/09/12 04:05:03;;;;;;;29.60;26.42;;;14.30;99.90;;;;;;5015566;28;20041;-61
2022/09/12 04:07:29;;;;;;;30.08;26.88;;;14.20;99.90;;;;;;5022109;28;20041;-60
2022/09/12 04:09:55;;;;;;;29.40;26.23;;;14.20;99.90;;;;;;5008282;28;20404;-62
2022/09/12 04:12:21;;;;;;;29.42;26.23;;;14.20;99.90;;;;;;4992903;28;20092;-61
2022/09/12 04:14:47;;;;;;;30.10;26.92;;;14.20;99.90;;;;;;5001520;28;20122;-60
2022/09/12 04:17:13;;;;;;;29.38;26.35;;;14.20;99.90;;;;;;4990024;28;20061;-61
2022/09/12 04:19:39;;;;;;;30.48;27.27;;;14.20;99.90;;;;;;5007888;28;20038;-60
2022/09/12 04:22:05;;;;;;;31.92;27.35;;;14.20;99.90;;;;;;5020744;28;20107;-60
2022/09/12 04:24:30;;;;;;;29.98;26.85;;;14.10;99.90;;;;;;5008847;28;20046;-60
2022/09/12 04:26:56;;;;;;;30.08;26.80;;;14.10;99.90;;;;;;5011387;28;20351;-60
2022/09/12 04:29:22;;;;;;;30.55;26.35;;;14.10;99.90;;;;;;4998496;28;20101;-62
2022/09/12 04:31:48;;;;;;;29.60;26.40;;;14.10;99.90;;;;;;4994801;28;20073;-60
2022/09/12 04:34:14;;;;;;;31.05;27.73;;;14.20;99.90;;;;;;5007916;28;20042;-61
2022/09/12 04:36:40;;;;;;;29.83;26.58;;;14.10;99.90;;;;;;5000237;28;20099;-60
2022/09/12 04:39:06;;;;;;;33.78;27.52;;;14.00;99.90;;;;;;4980449;28;20046;-60
2022/09/12 04:41:38;;;;;;;30.15;27.02;;;14.00;99.90;;;;;;4996551;28;20038;-62
2022/09/12 04:44:07;;;;;;;31.58;28.15;;;14.10;99.90;;;;;;4961639;28;20483;-61
2022/09/12 04:46:35;;;;;;;30.63;27.30;;;14.00;99.90;;;;;;5000338;28;20065;-60
2022/09/12 04:49:02;;;;;;;32.92;27.55;;;14.00;99.90;;;;;;5006403;28;20034;-60
2022/09/12 04:51:33;;;;;;;31.92;28.63;;;14.00;99.90;;;;;;5012261;28;20038;-60
2022/09/12 04:54:03;;;;;;;32.20;26.85;;;14.00;99.90;;;;;;5003918;28;20088;-60
2022/09/12 04:56:29;;;;;;;31.27;27.55;;;14.10;99.90;;;;;;5017858;28;20377;-60
2022/09/12 04:58:57;;;;;;;32.17;27.63;;;14.10;99.90;;;;;;5028976;28;20061;-60
2022/09/12 05:01:22;;;;;;;31.80;27.27;;;14.10;99.90;;;;;;5024541;28;20042;-60
2022/09/12 05:03:49;;;;;;;33.22;28.02;;;14.10;99.90;;;;;;5025328;28;20030;-60
2022/09/12 05:06:22;;;;;;;36.15;29.50;;;14.10;99.90;;;;;;5019519;28;20097;-60
2022/09/12 05:08:49;;;;;;;32.50;28.90;;;14.10;99.90;;;;;;5018467;28;20034;-60
2022/09/12 05:11:23;;;;;;;37.42;28.08;;;14.10;99.90;;;;;;5010242;28;20041;-60
2022/09/12 05:13:49;;;;;;;35.97;28.67;;;14.10;99.90;;;;;;5031516;28;20441;-61
2022/09/12 05:16:17;;;;;;;31.55;28.10;;;14.10;99.90;;;;;;4994350;28;20116;-60
2022/09/12 05:18:43;;;;;;;34.50;28.88;;;14.10;99.90;;;;;;5012778;28;20117;-60
2022/09/12 05:21:12;;;;;;;34.72;27.77;;;14.10;99.90;;;;;;5014761;28;20041;-60
2022/09/12 05:23:38;;;;;;;35.35;29.63;;;14.10;99.90;;;;;;5021843;28;20029;-60
2022/09/12 05:26:05;;;;;;;36.78;29.70;;;14.10;99.90;;;;;;5004033;28;20105;-60
2022/09/12 05:28:34;;;;;;;32.38;28.15;;;14.20;99.90;;;;;;5013325;28;20050;-59
2022/09/12 05:31:10;;;;;;;33.45;27.73;;;14.20;99.90;;;;;;5012551;28;20039;-59
2022/09/12 05:33:37;;;;;;;32.85;27.40;;;14.30;99.90;;;;;;5004990;28;20116;-60
2022/09/12 05:36:05;;;;;;;34.53;28.90;;;14.30;99.90;;;;;;5005814;28;20041;-59
2022/09/12 05:38:34;;;;;;;33.60;27.42;;;14.30;99.90;;;;;;5014118;28;20105;-59
2022/09/12 05:41:03;;;;;;;34.35;29.13;;;14.30;99.90;;;;;;5028481;28;20045;-60
2022/09/12 05:43:29;;;;;;;32.03;27.48;;;14.40;99.90;;;;;;5009629;28;20035;-60
2022/09/12 05:46:09;;;;;;;34.67;27.90;;;14.50;99.90;;;;;;5023125;28;20382;-61
2022/09/12 05:48:36;;;;;;;32.33;26.65;;;14.40;99.90;;;;;;5016156;28;20049;-63
2022/09/12 05:51:06;;;;;;;35.85;29.13;;;14.60;99.90;;;;;;5005114;28;20095;-63
2022/09/12 05:53:31;;;;;;;34.88;29.00;;;14.60;99.90;;;;;;5021880;28;20109;-62
2022/09/12 05:56:11;;;;;;;37.05;29.70;;;14.60;99.90;;;;;;5014571;28;20117;-60
2022/09/12 05:58:39;;;;;;;36.75;29.55;;;14.60;99.90;;;;;;4995425;28;20488;-61
2022/09/12 06:01:07;;;;;;;37.72;29.95;;;14.70;99.90;;;;;;5002638;28;20116;-60
2022/09/12 06:03:36;;;;;;;34.67;29.73;;;14.60;99.90;;;;;;5018922;28;20111;-61
2022/09/12 06:06:04;;;;;;;34.95;29.10;;;14.60;99.90;;;;;;5011733;28;20042;-61
2022/09/12 06:08:31;;;;;;;37.97;30.65;;;14.70;99.90;;;;;;5027477;28;20041;-60
2022/09/12 06:11:01;;;;;;;39.33;29.92;;;14.70;99.90;;;;;;5022000;28;20034;-60
2022/09/12 06:13:27;;;;;;;36.70;29.75;;;14.70;99.90;;;;;;5006969;28;20107;-60
2022/09/12 06:15:53;;;;;;;34.38;29.50;;;14.70;99.90;;;;;;5013676;28;20514;-60
2022/09/12 06:18:19;;;;;;;35.38;29.90;;;14.70;99.90;;;;;;5011426;28;20049;-62
2022/09/12 06:20:45;;;;;;;35.65;28.70;;;14.70;99.90;;;;;;4995711;28;20430;-60
2022/09/12 06:23:11;;;;;;;38.33;30.75;;;14.60;99.90;;;;;;5001985;28;20056;-61
2022/09/12 06:25:37;;;;;;;37.15;30.20;;;14.80;99.90;;;;;;4993127;28;20097;-60
2022/09/12 06:28:03;;;;;;;38.17;31.35;;;14.80;99.90;;;;;;5012997;28;20418;-60
2022/09/12 06:30:29;;;;;;;38.72;30.70;;;14.80;99.90;;;;;;5019770;28;20069;-61
2022/09/12 06:32:55;;;;;;;42.28;29.90;;;14.80;99.90;;;;;;5019215;28;20033;-62
2022/09/12 06:35:22;;;;;;;34.42;28.50;;;14.90;99.90;;;;;;5009871;28;20052;-61
2022/09/12 06:37:48;;;;;;;39.13;30.38;;;14.90;99.90;;;;;;5005404;28;20042;-60
2022/09/12 06:40:13;;;;;;;40.67;30.48;;;14.90;99.90;;;;;;5000152;28;20369;-60
2022/09/12 06:42:39;;;;;;;37.63;30.88;;;14.90;99.90;;;;;;5013112;28;20503;-61
2022/09/12 06:45:05;;;;;;;43.30;32.55;;;15.00;99.90;;;;;;5002269;28;20110;-62
2022/09/12 06:47:31;;;;;;;41.95;34.30;;;15.00;99.90;;;;;;5002281;28;20034;-61
2022/09/12 06:49:57;;;;;;;43.15;31.58;;;15.00;99.90;;;;;;5010596;28;20116;-62
2022/09/12 06:52:23;;;;;;;46.78;32.17;;;15.00;99.90;;;;;;5010027;28;20112;-61
2022/09/12 06:54:49;;;;;;;43.78;33.10;;;15.10;99.90;;;;;;5022998;28;20204;-61
2022/09/12 06:57:14;;;;;;;45.25;32.35;;;15.10;99.90;;;;;;5005253;28;20046;-62
2022/09/12 06:59:40;;;;;;;44.55;33.40;;;15.10;99.90;;;;;;4993996;28;20049;-62
2022/09/12 07:02:07;;;;;;;46.78;33.05;;;15.20;99.90;;;;;;5019741;28;20049;-61
2022/09/12 07:04:35;;;;;;;46.50;33.92;;;15.20;99.90;;;;;;4999889;28;20116;-60
2022/09/12 07:07:01;;;;;;;45.42;34.60;;;15.30;99.90;;;;;;5023573;28;20085;-60
2022/09/12 07:09:28;;;;;;;46.78;34.58;;;15.40;99.90;;;;;;5017032;28;20391;-61
2022/09/12 07:11:54;;;;;;;49.90;35.28;;;15.40;99.90;;;;;;5005323;28;20117;-60
2022/09/12 07:14:19;;;;;;;47.30;33.90;;;15.50;99.90;;;;;;5005797;28;20113;-60
2022/09/12 07:16:45;;;;;;;51.15;36.88;;;15.50;99.90;;;;;;5023459;28;20419;-61
2022/09/12 07:19:11;;;;;;;46.75;34.53;;;15.60;99.90;;;;;;5007123;28;20038;-61
2022/09/12 07:21:38;;;;;;;47.78;34.03;;;15.70;99.90;;;;;;5031249;28;20121;-61
2022/09/12 07:24:05;;;;;;;48.88;34.75;;;15.70;99.90;;;;;;4997468;28;20096;-61
2022/09/12 07:26:31;;;;;;;53.20;35.30;;;15.80;99.90;;;;;;4985327;28;20038;-60
2022/09/12 07:28:58;;;;;;;48.33;34.42;;;15.80;99.90;;;;;;5012505;28;20060;-60
2022/09/12 07:31:26;;;;;;;47.92;35.47;;;15.90;99.90;;;;;;4997510;28;20034;-61
2022/09/12 07:33:52;;;;;;;47.33;36.03;;;15.90;99.90;;;;;;4998135;28;20037;-60
2022/09/12 07:36:20;;;;;;;48.40;35.20;;;16.00;99.90;;;;;;5014896;28;20041;-60
2022/09/12 07:38:45;;;;;;;46.35;34.65;;;16.00;99.90;;;;;;5007255;28;20034;-61
2022/09/12 07:41:18;;;;;;;48.65;35.92;;;16.10;99.90;;;;;;4978803;28;20479;-60
2022/09/12 07:43:44;;;;;;;47.83;35.80;;;16.10;99.90;;;;;;4989192;28;20108;-61
2022/09/12 07:46:10;;;;;;;48.47;35.72;;;16.10;99.90;;;;;;5008630;28;20057;-60
2022/09/12 07:48:36;;;;;;;46.08;34.42;;;16.20;99.90;;;;;;5009328;28;20038;-61
2022/09/12 07:51:08;;;;;;;46.92;34.60;;;16.30;99.90;;;;;;5004516;28;20042;-61
2022/09/12 07:53:37;;;;;;;52.95;36.13;;;16.30;99.90;;;;;;5000027;28;20064;-61
2022/09/12 07:56:04;;;;;;;47.65;36.17;;;16.40;99.90;;;;;;5001749;28;20050;-61
2022/09/12 07:58:32;;;;;;;48.42;36.58;;;16.50;99.90;;;;;;5020058;28;20128;-61
2022/09/12 08:01:01;;;;;;;47.22;36.22;;;16.60;99.90;;;;;;4997973;28;20049;-61
2022/09/12 08:03:27;;;;;;;47.70;34.92;;;16.70;99.90;;;;;;5009199;28;20098;-61
2022/09/12 08:05:52;;;;;;;45.33;35.08;;;16.80;99.90;;;;;;5006593;28;20042;-60
2022/09/12 08:08:18;;;;;;;46.47;35.17;;;16.90;99.90;;;;;;5011746;28;20114;-60
2022/09/12 08:10:44;;;;;;;45.33;34.30;;;17.10;99.90;;;;;;5016612;28;20324;-61
2022/09/12 08:13:09;;;;;;;46.67;34.60;;;17.30;99.90;;;;;;5011785;28;20341;-61
2022/09/12 08:15:35;;;;;;;42.22;32.78;;;17.50;99.90;;;;;;4991184;28;20089;-62
2022/09/12 08:18:01;;;;;;;43.65;34.05;;;17.60;99.90;;;;;;4998660;28;20058;-60
2022/09/12 08:20:26;;;;;;;45.70;34.58;;;17.70;99.90;;;;;;4995816;28;20436;-61
2022/09/12 08:22:53;;;;;;;42.38;32.35;;;17.90;99.90;;;;;;4995352;28;20124;-60
2022/09/12 08:25:18;;;;;;;45.25;33.65;;;18.00;99.90;;;;;;4997447;28;20038;-61
2022/09/12 08:27:45;;;;;;;46.10;34.28;;;18.10;99.90;;;;;;5007620;28;20444;-62
2022/09/12 08:30:12;;;;;;;44.60;32.95;;;18.10;99.90;;;;;;4994659;28;20050;-61
2022/09/12 08:32:37;;;;;;;44.90;33.53;;;18.30;99.90;;;;;;5021411;28;20034;-62
2022/09/12 08:35:03;;;;;;;43.83;33.53;;;18.40;99.90;;;;;;5012087;28;20501;-62
2022/09/12 08:37:30;;;;;;;43.67;32.83;;;18.50;99.90;;;;;;5002803;28;20462;-62
2022/09/12 08:39:56;;;;;;;40.65;32.30;;;18.60;99.90;;;;;;5015217;28;20041;-63
2022/09/12 08:42:50;;;;;;;43.05;31.23;;;18.60;99.90;;;;;;4996712;28;20216;-62
2022/09/12 08:45:25;;;;;;;41.22;31.75;;;18.70;99.90;;;;;;4996367;28;20133;-63
2022/09/12 08:47:51;;;;;;;43.00;31.75;;;18.90;99.90;;;;;;4978837;28;20053;-62
2022/09/12 08:50:20;;;;;;;40.88;31.55;;;18.90;99.90;;;;;;4999989;28;20048;-59
2022/09/12 08:52:57;;;;;;;41.13;30.88;;;19.10;99.90;;;;;;5013197;28;20079;-59
2022/09/12 08:55:34;;;;;;;42.67;31.40;;;19.20;99.90;;;;;;5009198;28;20132;-60
2022/09/12 08:58:10;;;;;;;43.42;32.05;;;19.30;99.90;;;;;;4999986;28;20042;-61
2022/09/12 09:01:15;;;;;;;45.88;31.17;;;19.40;99.90;;;;;;4996443;28;20046;-60
2022/09/12 09:03:50;;;;;;;44.13;32.13;;;19.40;99.90;;;;;;4998843;28;20042;-60
2022/09/12 09:06:35;;;;;;;40.63;31.17;;;19.50;99.90;;;;;;4981305;28;20054;-60
2022/09/12 09:09:24;;;;;;;44.85;31.92;;;19.50;99.90;;;;;;4975623;28;20431;-60
2022/09/12 09:12:14;;;;;;;42.65;31.90;;;19.60;99.90;;;;;;4996357;28;20034;-60
2022/09/12 09:15:04;;;;;;;43.17;30.80;;;19.60;99.90;;;;;;5004875;28;20046;-61
2022/09/12 09:17:46;;;;;;;42.55;31.10;;;19.70;99.90;;;;;;5020298;28;20132;-61
2022/09/12 09:20:21;;;;;;;41.05;32.03;;;19.80;99.90;;;;;;5007352;28;20076;-61
2022/09/12 09:22:57;;;;;;;41.10;31.10;;;20.00;99.90;;;;;;4996751;28;20328;-61
2022/09/12 09:25:29;;;;;;;41.38;30.85;;;20.10;99.90;;;;;;4999979;28;20125;-63
2022/09/12 09:28:03;;;;;;;44.42;31.13;;;20.20;99.90;;;;;;4999759;28;20045;-61
2022/09/12 09:30:29;;;;;;;45.35;31.38;;;20.30;99.90;;;;;;5014073;28;20128;-61
2022/09/12 09:32:59;;;;;;;36.60;28.75;;;20.40;99.90;;;;;;5013816;28;20042;-61
2022/09/12 09:35:36;;;;;;;38.45;29.77;;;20.60;99.90;;;;;;5004658;28;20042;-61
2022/09/12 09:38:40;;;;;;;38.63;29.73;;;20.70;99.90;;;;;;4998785;28;20053;-61
2022/09/12 09:41:33;;;;;;;37.80;28.63;;;20.80;99.90;;;;;;4979029;28;20070;-62
2022/09/12 09:43:59;;;;;;;41.97;29.63;;;21.00;99.90;;;;;;5013267;28;20029;-61
2022/09/12 09:46:26;;;;;;;39.85;28.20;;;21.10;99.90;;;;;;5031829;28;20354;-61
2022/09/12 09:48:52;;;;;;;39.90;30.75;;;21.20;99.90;;;;;;5013410;28;20507;-62
2022/09/12 09:51:25;;;;;;;39.45;29.83;;;21.30;99.90;;;;;;5013796;28;20045;-62
2022/09/12 09:54:01;;;;;;;41.60;29.48;;;21.30;99.90;;;;;;4996448;28;20049;-61
2022/09/12 09:56:36;;;;;;;38.78;29.05;;;21.30;99.90;;;;;;4999298;28;20042;-61
2022/09/12 09:59:19;;;;;;;36.67;27.38;;;21.40;99.90;;;;;;4983923;28;20052;-61
2022/09/12 10:01:53;;;;;;;39.03;29.73;;;21.60;99.90;;;;;;4996030;28;20050;-61
2022/09/12 10:04:23;;;;;;;37.47;26.67;;;21.70;99.90;;;;;;4995724;28;20100;-61
2022/09/12 10:06:58;;;;;;;36.45;26.73;;;21.80;99.90;;;;;;5007428;28;20118;-61
2022/09/12 10:09:27;;;;;;;33.92;26.40;;;21.90;99.90;;;;;;5008904;28;20099;-61
2022/09/12 10:11:54;;;;;;;34.10;26.08;;;21.90;99.90;;;;;;5010732;28;20034;-61
2022/09/12 10:14:31;;;;;;;34.10;25.67;;;21.90;99.90;;;;;;5003423;28;20219;-61
2022/09/12 10:16:58;;;;;;;32.40;24.92;;;21.90;99.90;;;;;;5012372;28;20081;-61
2022/09/12 10:19:34;;;;;;;33.00;25.83;;;22.10;99.90;;;;;;5012389;28;20060;-61
2022/09/12 10:22:01;;;;;;;31.88;24.35;;;22.20;99.90;;;;;;4996247;28;20104;-60
2022/09/12 10:24:35;;;;;;;30.85;23.65;;;22.30;99.90;;;;;;5010366;28;20144;-61
2022/09/12 10:27:19;;;;;;;31.55;23.98;;;22.40;99.90;;;;;;5006380;28;20084;-61
2022/09/12 10:29:55;;;;;;;31.63;23.80;;;22.50;99.90;;;;;;4994494;28;20443;-62
2022/09/12 10:32:37;;;;;;;30.65;22.98;;;22.60;99.90;;;;;;4987915;28;20088;-62
2022/09/12 10:35:16;;;;;;;29.10;21.67;;;22.70;99.90;;;;;;4993293;28;20141;-61
2022/09/12 10:37:52;;;;;;;27.58;21.42;;;22.70;99.90;;;;;;4989537;28;20123;-61
2022/09/12 10:40:36;;;;;;;26.17;20.60;;;22.80;99.90;;;;;;5005913;28;20443;-61
2022/09/12 10:43:16;;;;;;;30.85;21.85;;;22.90;99.90;;;;;;4995100;28;20448;-60
2022/09/12 10:45:41;;;;;;;29.85;21.83;;;22.90;99.90;;;;;;4995468;28;20049;-61
2022/09/12 10:48:26;;;;;;;28.40;22.23;;;23.00;99.90;;;;;;5025576;28;20147;-62
2022/09/12 10:50:51;;;;;;;30.67;22.67;;;23.10;99.90;;;;;;5014404;28;20439;-61
2022/09/12 10:53:23;;;;;;;32.47;22.02;;;23.10;99.90;;;;;;4992930;28;20041;-62
2022/09/12 10:55:55;;;;;;;28.90;21.92;;;23.10;99.90;;;;;;4994868;28;20038;-62
2022/09/12 10:58:42;;;;;;;28.00;20.63;;;23.20;99.90;;;;;;4988541;28;20038;-61
2022/09/12 11:01:27;;;;;;;28.85;20.42;;;23.30;99.90;;;;;;5011821;28;20431;-63
2022/09/12 11:04:17;;;;;;;24.75;19.55;;;23.30;99.90;;;;;;5015635;28;20046;-62
2022/09/12 11:07:02;;;;;;;25.58;18.02;;;23.30;99.90;;;;;;5016217;28;20497;-61
2022/09/12 11:09:53;;;;;;;23.95;18.20;;;23.40;99.90;;;;;;4990071;28;20474;-62
2022/09/12 11:12:31;;;;;;;23.10;17.38;;;23.50;99.90;;;;;;4983454;28;20069;-62
2022/09/12 11:15:09;;;;;;;20.15;16.13;;;23.50;99.90;;;;;;5016696;28;20081;-60
2022/09/12 11:17:42;;;;;;;20.60;15.05;;;23.40;99.90;;;;;;4988891;28;20145;-60
2022/09/12 11:20:27;;;;;;;19.77;14.55;;;23.30;99.90;;;;;;4992176;28;20096;-61
2022/09/12 11:23:24;;;;;;;21.45;16.13;;;23.40;99.90;;;;;;5027779;28;20092;-61
2022/09/12 11:26:04;;;;;;;20.42;15.73;;;23.40;99.90;;;;;;5003812;28;20046;-61
2022/09/12 11:29:03;;;;;;;20.88;16.38;;;23.40;99.90;;;;;;4995962;28;20463;-63
2022/09/12 11:31:34;;;;;;;24.67;17.60;;;23.40;99.90;;;;;;5024217;28;20053;-61
2022/09/12 11:34:07;;;;;;;24.42;18.02;;;23.50;99.90;;;;;;5007553;28;20061;-61
2022/09/12 11:36:39;;;;;;;24.10;18.23;;;23.70;99.90;;;;;;4998076;28;20045;-63
2022/09/12 11:39:43;;;;;;;22.33;16.85;;;23.90;99.90;;;;;;5004577;28;20335;-62
2022/09/12 11:42:17;;;;;;;22.80;16.75;;;24.10;99.90;;;;;;4987260;28;20053;-61
2022/09/12 11:44:46;;;;;;;22.10;16.90;;;24.20;99.90;;;;;;4998327;28;20125;-62
2022/09/12 11:47:13;;;;;;;20.25;16.40;;;24.20;99.90;;;;;;5003047;28;20207;-61
2022/09/12 11:50:01;;;;;;;19.40;15.95;;;24.20;99.90;;;;;;5015234;28;20185;-61
2022/09/12 11:52:34;;;;;;;19.50;15.60;;;24.30;99.90;;;;;;4991524;28;20097;-61
2022/09/12 11:55:24;;;;;;;19.67;14.85;;;24.30;99.90;;;;;;4992560;28;20042;-63
2022/09/12 11:57:57;;;;;;;20.20;14.85;;;24.10;99.90;;;;;;5015649;28;20042;-62
2022/09/12 12:00:52;;;;;;;20.98;14.95;;;24.10;99.90;;;;;;4996985;28;20495;-61
2022/09/12 12:03:33;;;;;;;19.13;15.52;;;24.10;99.90;;;;;;4991626;28;20058;-63
2022/09/12 12:06:09;;;;;;;21.25;16.00;;;24.10;99.90;;;;;;5006561;28;20057;-61
2022/09/12 12:08:39;;;;;;;20.00;14.93;;;24.10;99.90;;;;;;5009367;28;20077;-62
2022/09/12 12:11:09;;;;;;;20.75;13.95;;;24.10;99.90;;;;;;5006444;28;20034;-62
2022/09/12 12:13:41;;;;;;;16.15;12.35;;;24.20;99.90;;;;;;4996104;28;20046;-61
2022/09/12 12:16:13;;;;;;;17.98;13.35;;;24.30;99.90;;;;;;5001892;28;20038;-61
2022/09/12 12:18:39;;;;;;;16.95;13.00;;;24.30;99.90;;;;;;5010538;28;20088;-61
2022/09/12 12:21:30;;;;;;;19.73;14.52;;;24.40;99.90;;;;;;5007182;28;20444;-62
2022/09/12 12:24:08;;;;;;;16.38;12.40;;;24.40;99.90;;;;;;4997609;28;20486;-61
2022/09/12 12:26:39;;;;;;;18.23;14.23;;;24.40;99.90;;;;;;5006526;28;20080;-61
2022/09/12 12:29:15;;;;;;;19.63;13.35;;;24.30;99.90;;;;;;5027471;28;20386;-62
2022/09/12 12:32:02;;;;;;;16.77;12.52;;;24.40;99.90;;;;;;5004498;28;20104;-60
2022/09/12 12:34:44;;;;;;;15.25;12.18;;;24.40;99.90;;;;;;4994986;28;20378;-62
2022/09/12 12:37:19;;;;;;;19.40;14.27;;;24.50;99.90;;;;;;5014044;28;20439;-63
2022/09/12 12:39:52;;;;;;;17.65;13.30;;;24.60;99.90;;;;;;4997232;28;20081;-60
2022/09/12 12:42:33;;;;;;;18.50;13.77;;;24.60;99.90;;;;;;4996698;28;20309;-62
2022/09/12 12:45:22;;;;;;;18.30;13.75;;;24.60;99.90;;;;;;5011033;28;20046;-61
2022/09/12 12:47:58;;;;;;;17.73;13.88;;;24.60;99.90;;;;;;5013277;28;20069;-60
2022/09/12 12:50:26;;;;;;;19.13;13.10;;;24.60;99.90;;;;;;5014430;28;20351;-60
2022/09/12 12:53:15;;;;;;;13.82;10.52;;;24.60;99.90;;;;;;5001200;28;20112;-60
2022/09/12 12:55:41;;;;;;;12.45;10.52;;;24.70;99.90;;;;;;4994738;28;20042;-61